sensor_id;sensor_type;location;lat;lon;timestamp;P1;durP1;ratioP1;P2;durP2;ratioP2
22881;SDS011;11608;50.894;5.296;2023-02-28T00:01:17;24.80;;;22.93;;
22881;SDS011;11608;50.894;5.296;2023-02-28T00:03:44;24.53;;;22.63;;
22881;SDS011;11608;50.894;5.296;2023-02-28T00:06:10;24.50;;;22.57;;
22881;SDS011;11608;50.894;5.296;2023-02-28T00:08:36;24.47;;;22.73;;
22881;SDS011;11608;50.894;5.296;2023-02-28T00:11:03;25.93;;;23.57;;
22881;SDS011;11608;50.894;5.296;2023-02-28T00:13:30;25.43;;;23.17;;
22881;SDS011;11608;50.894;5.296;2023-02-28T00:16:03;26.33;;;24.10;;
22881;SDS011;11608;50.894;5.296;2023-02-28T00:18:29;25.90;;;23.60;;
22881;SDS011;11608;50.894;5.296;2023-02-28T00:20:56;25.13;;;23.10;;
22881;SDS011;11608;50.894;5.296;2023-02-28T00:23:22;25.10;;;23.07;;
22881;SDS011;11608;50.894;5.296;2023-02-28T00:25:48;25.07;;;23.27;;
22881;SDS011;11608;50.894;5.296;2023-02-28T00:28:15;25.43;;;23.17;;
22881;SDS011;11608;50.894;5.296;2023-02-28T00:30:41;25.43;;;23.43;;
22881;SDS011;11608;50.894;5.296;2023-02-28T00:33:07;25.97;;;23.53;;
22881;SDS011;11608;50.894;5.296;2023-02-28T00:35:33;24.80;;;23.00;;
22881;SDS011;11608;50.894;5.296;2023-02-28T00:37:59;25.30;;;23.00;;
22881;SDS011;11608;50.894;5.296;2023-02-28T00:40:25;23.93;;;21.87;;
22881;SDS011;11608;50.894;5.296;2023-02-28T00:42:51;24.17;;;22.07;;
22881;SDS011;11608;50.894;5.296;2023-02-28T00:45:17;26.60;;;24.07;;
22881;SDS011;11608;50.894;5.296;2023-02-28T00:47:44;24.57;;;22.67;;
22881;SDS011;11608;50.894;5.296;2023-02-28T00:50:11;25.47;;;23.17;;
22881;SDS011;11608;50.894;5.296;2023-02-28T00:52:37;25.07;;;23.00;;
22881;SDS011;11608;50.894;5.296;2023-02-28T00:55:04;25.40;;;23.30;;
22881;SDS011;11608;50.894;5.296;2023-02-28T00:57:30;25.00;;;23.00;;
22881;SDS011;11608;50.894;5.296;2023-02-28T00:59:56;25.23;;;23.00;;
22881;SDS011;11608;50.894;5.296;2023-02-28T01:02:22;25.17;;;23.07;;
22881;SDS011;11608;50.894;5.296;2023-02-28T01:04:48;25.07;;;23.17;;
22881;SDS011;11608;50.894;5.296;2023-02-28T01:07:14;25.10;;;22.87;;
22881;SDS011;11608;50.894;5.296;2023-02-28T01:09:41;26.23;;;23.87;;
22881;SDS011;11608;50.894;5.296;2023-02-28T01:12:07;24.67;;;22.67;;
22881;SDS011;11608;50.894;5.296;2023-02-28T01:14:33;24.93;;;22.83;;
22881;SDS011;11608;50.894;5.296;2023-02-28T01:17:00;25.23;;;23.30;;
22881;SDS011;11608;50.894;5.296;2023-02-28T01:19:26;26.17;;;23.87;;
22881;SDS011;11608;50.894;5.296;2023-02-28T01:21:52;25.70;;;23.83;;
22881;SDS011;11608;50.894;5.296;2023-02-28T01:24:18;25.73;;;23.70;;
22881;SDS011;11608;50.894;5.296;2023-02-28T01:26:44;24.80;;;22.47;;
22881;SDS011;11608;50.894;5.296;2023-02-28T01:29:10;25.37;;;23.10;;
22881;SDS011;11608;50.894;5.296;2023-02-28T01:31:36;26.17;;;23.97;;
22881;SDS011;11608;50.894;5.296;2023-02-28T01:34:02;26.03;;;23.87;;
22881;SDS011;11608;50.894;5.296;2023-02-28T01:36:28;26.20;;;24.10;;
22881;SDS011;11608;50.894;5.296;2023-02-28T01:38:55;26.50;;;24.17;;
22881;SDS011;11608;50.894;5.296;2023-02-28T01:46:13;26.13;;;24.23;;
22881;SDS011;11608;50.894;5.296;2023-02-28T01:48:44;26.73;;;24.47;;
22881;SDS011;11608;50.894;5.296;2023-02-28T01:51:14;26.40;;;24.07;;
22881;SDS011;11608;50.894;5.296;2023-02-28T01:53:45;26.03;;;24.03;;
22881;SDS011;11608;50.894;5.296;2023-02-28T01:56:14;26.37;;;24.47;;
22881;SDS011;11608;50.894;5.296;2023-02-28T01:58:46;27.10;;;25.00;;
22881;SDS011;11608;50.894;5.296;2023-02-28T02:01:12;27.20;;;25.10;;
22881;SDS011;11608;50.894;5.296;2023-02-28T02:03:47;26.93;;;24.87;;
22881;SDS011;11608;50.894;5.296;2023-02-28T02:06:20;25.07;;;22.83;;
22881;SDS011;11608;50.894;5.296;2023-02-28T02:08:46;24.87;;;22.97;;
22881;SDS011;11608;50.894;5.296;2023-02-28T02:11:12;24.73;;;22.77;;
22881;SDS011;11608;50.894;5.296;2023-02-28T02:13:46;26.13;;;24.17;;
22881;SDS011;11608;50.894;5.296;2023-02-28T02:34:56;26.70;;;24.60;;
22881;SDS011;11608;50.894;5.296;2023-02-28T02:37:36;26.30;;;24.10;;
22881;SDS011;11608;50.894;5.296;2023-02-28T02:42:36;27.53;;;25.33;;
22881;SDS011;11608;50.894;5.296;2023-02-28T02:45:24;26.47;;;24.47;;
22881;SDS011;11608;50.894;5.296;2023-02-28T02:47:52;26.93;;;24.77;;
22881;SDS011;11608;50.894;5.296;2023-02-28T02:50:38;27.33;;;24.87;;
22881;SDS011;11608;50.894;5.296;2023-02-28T02:53:05;25.87;;;23.70;;
22881;SDS011;11608;50.894;5.296;2023-02-28T02:55:33;25.93;;;23.80;;
22881;SDS011;11608;50.894;5.296;2023-02-28T02:58:01;27.77;;;25.57;;
22881;SDS011;11608;50.894;5.296;2023-02-28T03:00:39;28.53;;;26.23;;
22881;SDS011;11608;50.894;5.296;2023-02-28T03:03:07;28.23;;;25.57;;
22881;SDS011;11608;50.894;5.296;2023-02-28T03:05:35;28.20;;;25.80;;
22881;SDS011;11608;50.894;5.296;2023-02-28T03:08:05;26.57;;;24.30;;
22881;SDS011;11608;50.894;5.296;2023-02-28T03:10:35;26.77;;;24.67;;
22881;SDS011;11608;50.894;5.296;2023-02-28T03:18:18;27.90;;;25.60;;
22881;SDS011;11608;50.894;5.296;2023-02-28T03:20:59;28.20;;;25.73;;
22881;SDS011;11608;50.894;5.296;2023-02-28T03:23:32;26.77;;;24.43;;
22881;SDS011;11608;50.894;5.296;2023-02-28T03:26:04;27.27;;;24.97;;
22881;SDS011;11608;50.894;5.296;2023-02-28T03:28:48;28.10;;;25.67;;
22881;SDS011;11608;50.894;5.296;2023-02-28T03:34:04;27.30;;;24.97;;
22881;SDS011;11608;50.894;5.296;2023-02-28T03:36:33;28.10;;;25.60;;
22881;SDS011;11608;50.894;5.296;2023-02-28T03:39:07;27.27;;;24.97;;
22881;SDS011;11608;50.894;5.296;2023-02-28T03:41:56;27.33;;;25.23;;
22881;SDS011;11608;50.894;5.296;2023-02-28T03:44:24;27.87;;;25.57;;
22881;SDS011;11608;50.894;5.296;2023-02-28T03:46:53;27.80;;;25.70;;
22881;SDS011;11608;50.894;5.296;2023-02-28T03:49:24;27.73;;;25.47;;
22881;SDS011;11608;50.894;5.296;2023-02-28T03:51:52;27.37;;;25.07;;
22881;SDS011;11608;50.894;5.296;2023-02-28T03:54:22;27.30;;;25.13;;
22881;SDS011;11608;50.894;5.296;2023-02-28T03:59:45;28.07;;;25.80;;
22881;SDS011;11608;50.894;5.296;2023-02-28T04:02:12;27.60;;;25.57;;
22881;SDS011;11608;50.894;5.296;2023-02-28T04:04:38;28.43;;;26.23;;
22881;SDS011;11608;50.894;5.296;2023-02-28T04:07:10;28.37;;;26.17;;
22881;SDS011;11608;50.894;5.296;2023-02-28T04:09:36;28.73;;;26.27;;
22881;SDS011;11608;50.894;5.296;2023-02-28T04:12:03;28.63;;;26.33;;
22881;SDS011;11608;50.894;5.296;2023-02-28T04:14:29;27.80;;;25.40;;
22881;SDS011;11608;50.894;5.296;2023-02-28T04:16:55;26.73;;;24.47;;
22881;SDS011;11608;50.894;5.296;2023-02-28T04:19:21;26.97;;;24.77;;
22881;SDS011;11608;50.894;5.296;2023-02-28T04:21:48;26.57;;;24.37;;
22881;SDS011;11608;50.894;5.296;2023-02-28T04:24:21;27.13;;;24.83;;
22881;SDS011;11608;50.894;5.296;2023-02-28T04:26:49;28.23;;;25.97;;
22881;SDS011;11608;50.894;5.296;2023-02-28T04:29:19;28.93;;;26.53;;
22881;SDS011;11608;50.894;5.296;2023-02-28T04:31:45;28.43;;;26.10;;
22881;SDS011;11608;50.894;5.296;2023-02-28T04:34:11;27.77;;;25.53;;
22881;SDS011;11608;50.894;5.296;2023-02-28T04:36:37;28.77;;;26.27;;
22881;SDS011;11608;50.894;5.296;2023-02-28T04:39:03;28.87;;;26.57;;
22881;SDS011;11608;50.894;5.296;2023-02-28T04:41:29;29.33;;;26.50;;
22881;SDS011;11608;50.894;5.296;2023-02-28T04:43:55;28.50;;;25.93;;
22881;SDS011;11608;50.894;5.296;2023-02-28T04:46:22;28.17;;;25.87;;
22881;SDS011;11608;50.894;5.296;2023-02-28T04:48:48;28.43;;;26.20;;
22881;SDS011;11608;50.894;5.296;2023-02-28T04:51:15;29.57;;;27.17;;
22881;SDS011;11608;50.894;5.296;2023-02-28T04:53:41;28.47;;;26.33;;
22881;SDS011;11608;50.894;5.296;2023-02-28T04:56:09;28.80;;;26.30;;
22881;SDS011;11608;50.894;5.296;2023-02-28T04:58:35;27.93;;;25.67;;
22881;SDS011;11608;50.894;5.296;2023-02-28T05:01:03;28.37;;;26.03;;
22881;SDS011;11608;50.894;5.296;2023-02-28T05:03:38;29.47;;;27.07;;
22881;SDS011;11608;50.894;5.296;2023-02-28T05:06:05;29.03;;;26.73;;
22881;SDS011;11608;50.894;5.296;2023-02-28T05:08:32;29.40;;;27.07;;
22881;SDS011;11608;50.894;5.296;2023-02-28T05:10:58;29.10;;;26.70;;
22881;SDS011;11608;50.894;5.296;2023-02-28T05:13:26;29.20;;;26.80;;
22881;SDS011;11608;50.894;5.296;2023-02-28T05:15:52;30.37;;;27.93;;
22881;SDS011;11608;50.894;5.296;2023-02-28T05:18:18;30.13;;;27.83;;
22881;SDS011;11608;50.894;5.296;2023-02-28T05:20:44;30.53;;;28.10;;
22881;SDS011;11608;50.894;5.296;2023-02-28T05:23:11;29.40;;;27.03;;
22881;SDS011;11608;50.894;5.296;2023-02-28T05:25:38;30.53;;;27.93;;
22881;SDS011;11608;50.894;5.296;2023-02-28T05:28:04;29.83;;;27.53;;
22881;SDS011;11608;50.894;5.296;2023-02-28T05:30:30;30.33;;;27.93;;
22881;SDS011;11608;50.894;5.296;2023-02-28T05:32:56;31.57;;;28.93;;
22881;SDS011;11608;50.894;5.296;2023-02-28T05:35:23;31.17;;;28.70;;
22881;SDS011;11608;50.894;5.296;2023-02-28T05:37:49;31.33;;;28.73;;
22881;SDS011;11608;50.894;5.296;2023-02-28T05:40:15;29.60;;;27.40;;
22881;SDS011;11608;50.894;5.296;2023-02-28T05:42:42;30.13;;;27.70;;
22881;SDS011;11608;50.894;5.296;2023-02-28T05:45:08;28.20;;;25.77;;
22881;SDS011;11608;50.894;5.296;2023-02-28T05:47:34;28.20;;;25.93;;
22881;SDS011;11608;50.894;5.296;2023-02-28T05:50:01;30.03;;;27.83;;
22881;SDS011;11608;50.894;5.296;2023-02-28T05:52:27;31.93;;;28.97;;
22881;SDS011;11608;50.894;5.296;2023-02-28T05:54:54;30.80;;;28.47;;
22881;SDS011;11608;50.894;5.296;2023-02-28T05:57:20;31.60;;;29.03;;
22881;SDS011;11608;50.894;5.296;2023-02-28T05:59:46;31.57;;;29.07;;
22881;SDS011;11608;50.894;5.296;2023-02-28T06:02:14;30.80;;;28.40;;
22881;SDS011;11608;50.894;5.296;2023-02-28T06:04:40;31.53;;;28.93;;
22881;SDS011;11608;50.894;5.296;2023-02-28T06:07:06;30.47;;;28.20;;
22881;SDS011;11608;50.894;5.296;2023-02-28T06:09:33;29.10;;;26.57;;
22881;SDS011;11608;50.894;5.296;2023-02-28T06:11:59;28.63;;;26.07;;
22881;SDS011;11608;50.894;5.296;2023-02-28T06:14:28;27.60;;;25.50;;
22881;SDS011;11608;50.894;5.296;2023-02-28T06:16:54;27.10;;;24.67;;
22881;SDS011;11608;50.894;5.296;2023-02-28T06:19:20;28.17;;;25.77;;
22881;SDS011;11608;50.894;5.296;2023-02-28T06:21:48;29.07;;;26.60;;
22881;SDS011;11608;50.894;5.296;2023-02-28T06:24:15;30.30;;;27.63;;
22881;SDS011;11608;50.894;5.296;2023-02-28T06:26:41;28.33;;;25.87;;
22881;SDS011;11608;50.894;5.296;2023-02-28T06:29:07;27.40;;;25.23;;
22881;SDS011;11608;50.894;5.296;2023-02-28T06:31:34;28.07;;;25.83;;
22881;SDS011;11608;50.894;5.296;2023-02-28T06:34:00;27.83;;;25.20;;
22881;SDS011;11608;50.894;5.296;2023-02-28T06:36:26;27.47;;;25.17;;
22881;SDS011;11608;50.894;5.296;2023-02-28T06:38:52;28.00;;;25.60;;
22881;SDS011;11608;50.894;5.296;2023-02-28T06:41:20;28.93;;;26.07;;
22881;SDS011;11608;50.894;5.296;2023-02-28T06:43:46;28.30;;;25.70;;
22881;SDS011;11608;50.894;5.296;2023-02-28T06:46:13;27.33;;;24.83;;
22881;SDS011;11608;50.894;5.296;2023-02-28T06:48:39;26.70;;;24.33;;
22881;SDS011;11608;50.894;5.296;2023-02-28T06:51:06;27.57;;;24.87;;
22881;SDS011;11608;50.894;5.296;2023-02-28T06:53:33;27.03;;;24.67;;
22881;SDS011;11608;50.894;5.296;2023-02-28T06:55:59;25.63;;;23.47;;
22881;SDS011;11608;50.894;5.296;2023-02-28T06:58:28;26.40;;;24.10;;
22881;SDS011;11608;50.894;5.296;2023-02-28T07:00:54;27.17;;;24.67;;
22881;SDS011;11608;50.894;5.296;2023-02-28T07:03:21;28.27;;;25.77;;
22881;SDS011;11608;50.894;5.296;2023-02-28T07:05:48;27.33;;;24.93;;
22881;SDS011;11608;50.894;5.296;2023-02-28T07:08:14;26.53;;;23.83;;
22881;SDS011;11608;50.894;5.296;2023-02-28T07:10:40;27.00;;;24.27;;
22881;SDS011;11608;50.894;5.296;2023-02-28T07:13:07;26.00;;;23.80;;
22881;SDS011;11608;50.894;5.296;2023-02-28T07:15:33;26.10;;;23.60;;
22881;SDS011;11608;50.894;5.296;2023-02-28T07:17:59;26.53;;;24.10;;
22881;SDS011;11608;50.894;5.296;2023-02-28T07:20:26;26.40;;;24.00;;
22881;SDS011;11608;50.894;5.296;2023-02-28T07:22:52;26.13;;;23.93;;
22881;SDS011;11608;50.894;5.296;2023-02-28T07:25:25;26.07;;;23.77;;
22881;SDS011;11608;50.894;5.296;2023-02-28T07:27:52;25.53;;;23.23;;
22881;SDS011;11608;50.894;5.296;2023-02-28T07:30:19;25.67;;;23.10;;
22881;SDS011;11608;50.894;5.296;2023-02-28T07:32:45;25.47;;;23.03;;
22881;SDS011;11608;50.894;5.296;2023-02-28T07:35:11;26.83;;;24.27;;
22881;SDS011;11608;50.894;5.296;2023-02-28T07:37:37;25.93;;;23.37;;
22881;SDS011;11608;50.894;5.296;2023-02-28T07:40:04;25.37;;;22.90;;
22881;SDS011;11608;50.894;5.296;2023-02-28T07:42:35;26.37;;;23.97;;
22881;SDS011;11608;50.894;5.296;2023-02-28T07:45:01;24.83;;;22.63;;
22881;SDS011;11608;50.894;5.296;2023-02-28T07:47:28;25.47;;;23.23;;
22881;SDS011;11608;50.894;5.296;2023-02-28T07:49:55;25.13;;;23.03;;
22881;SDS011;11608;50.894;5.296;2023-02-28T07:52:21;24.47;;;22.40;;
22881;SDS011;11608;50.894;5.296;2023-02-28T07:54:48;24.90;;;22.47;;
22881;SDS011;11608;50.894;5.296;2023-02-28T07:57:14;23.83;;;21.63;;
22881;SDS011;11608;50.894;5.296;2023-02-28T07:59:40;23.10;;;21.10;;
22881;SDS011;11608;50.894;5.296;2023-02-28T08:02:08;23.53;;;21.37;;
22881;SDS011;11608;50.894;5.296;2023-02-28T08:04:35;23.20;;;21.20;;
22881;SDS011;11608;50.894;5.296;2023-02-28T08:07:01;23.10;;;21.20;;
22881;SDS011;11608;50.894;5.296;2023-02-28T08:09:27;22.90;;;21.10;;
22881;SDS011;11608;50.894;5.296;2023-02-28T08:11:54;22.87;;;21.07;;
22881;SDS011;11608;50.894;5.296;2023-02-28T08:14:20;22.70;;;20.70;;
22881;SDS011;11608;50.894;5.296;2023-02-28T08:16:47;23.05;;;21.13;;
22881;SDS011;11608;50.894;5.296;2023-02-28T08:19:13;23.47;;;21.50;;
22881;SDS011;11608;50.894;5.296;2023-02-28T08:21:39;22.90;;;20.90;;
22881;SDS011;11608;50.894;5.296;2023-02-28T08:24:05;24.25;;;22.25;;
22881;SDS011;11608;50.894;5.296;2023-02-28T08:26:31;23.60;;;21.67;;
22881;SDS011;11608;50.894;5.296;2023-02-28T08:28:57;22.52;;;20.55;;
22881;SDS011;11608;50.894;5.296;2023-02-28T08:31:23;21.67;;;19.93;;
22881;SDS011;11608;50.894;5.296;2023-02-28T08:33:49;23.33;;;21.42;;
22881;SDS011;11608;50.894;5.296;2023-02-28T08:36:18;22.67;;;20.80;;
22881;SDS011;11608;50.894;5.296;2023-02-28T08:38:44;22.40;;;20.50;;
22881;SDS011;11608;50.894;5.296;2023-02-28T08:41:11;22.38;;;20.48;;
22881;SDS011;11608;50.894;5.296;2023-02-28T08:43:38;22.27;;;20.45;;
22881;SDS011;11608;50.894;5.296;2023-02-28T08:46:04;21.65;;;20.05;;
22881;SDS011;11608;50.894;5.296;2023-02-28T08:48:31;22.95;;;21.05;;
22881;SDS011;11608;50.894;5.296;2023-02-28T08:51:07;22.10;;;20.30;;
22881;SDS011;11608;50.894;5.296;2023-02-28T08:53:34;22.40;;;20.58;;
22881;SDS011;11608;50.894;5.296;2023-02-28T08:56:02;22.27;;;20.27;;
22881;SDS011;11608;50.894;5.296;2023-02-28T08:58:28;22.08;;;20.27;;
22881;SDS011;11608;50.894;5.296;2023-02-28T09:00:54;21.75;;;20.13;;
22881;SDS011;11608;50.894;5.296;2023-02-28T09:03:21;22.17;;;20.48;;
22881;SDS011;11608;50.894;5.296;2023-02-28T09:05:54;21.63;;;19.92;;
22881;SDS011;11608;50.894;5.296;2023-02-28T09:08:20;22.50;;;20.48;;
22881;SDS011;11608;50.894;5.296;2023-02-28T09:10:47;22.35;;;20.27;;
22881;SDS011;11608;50.894;5.296;2023-02-28T09:13:13;21.40;;;19.77;;
22881;SDS011;11608;50.894;5.296;2023-02-28T09:15:39;21.60;;;20.08;;
22881;SDS011;11608;50.894;5.296;2023-02-28T09:18:05;21.85;;;19.92;;
22881;SDS011;11608;50.894;5.296;2023-02-28T09:20:31;22.45;;;20.65;;
22881;SDS011;11608;50.894;5.296;2023-02-28T09:22:57;22.02;;;20.13;;
22881;SDS011;11608;50.894;5.296;2023-02-28T09:25:23;21.83;;;20.05;;
22881;SDS011;11608;50.894;5.296;2023-02-28T09:27:49;22.38;;;20.58;;
22881;SDS011;11608;50.894;5.296;2023-02-28T09:30:15;21.48;;;19.65;;
22881;SDS011;11608;50.894;5.296;2023-02-28T09:32:41;21.00;;;19.30;;
22881;SDS011;11608;50.894;5.296;2023-02-28T09:35:25;20.48;;;18.80;;
22881;SDS011;11608;50.894;5.296;2023-02-28T09:37:52;20.48;;;19.00;;
22881;SDS011;11608;50.894;5.296;2023-02-28T09:40:22;20.05;;;18.67;;
22881;SDS011;11608;50.894;5.296;2023-02-28T09:42:51;20.30;;;18.75;;
22881;SDS011;11608;50.894;5.296;2023-02-28T09:45:33;20.02;;;18.60;;
22881;SDS011;11608;50.894;5.296;2023-02-28T09:48:02;20.30;;;18.80;;
22881;SDS011;11608;50.894;5.296;2023-02-28T09:52:56;19.77;;;18.40;;
22881;SDS011;11608;50.894;5.296;2023-02-28T09:55:28;20.33;;;18.75;;
22881;SDS011;11608;50.894;5.296;2023-02-28T09:57:55;20.65;;;18.95;;
22881;SDS011;11608;50.894;5.296;2023-02-28T10:00:27;20.50;;;18.80;;
22881;SDS011;11608;50.894;5.296;2023-02-28T10:05:27;20.65;;;18.95;;
22881;SDS011;11608;50.894;5.296;2023-02-28T10:08:56;21.02;;;19.27;;
22881;SDS011;11608;50.894;5.296;2023-02-28T10:10:51;21.27;;;19.75;;
22881;SDS011;11608;50.894;5.296;2023-02-28T10:13:32;20.45;;;18.95;;
22881;SDS011;11608;50.894;5.296;2023-02-28T10:16:01;21.40;;;19.80;;
22881;SDS011;11608;50.894;5.296;2023-02-28T10:18:30;20.48;;;18.98;;
22881;SDS011;11608;50.894;5.296;2023-02-28T10:21:01;19.92;;;18.42;;
22881;SDS011;11608;50.894;5.296;2023-02-28T10:23:31;20.10;;;18.70;;
22881;SDS011;11608;50.894;5.296;2023-02-28T10:26:13;21.08;;;19.33;;
22881;SDS011;11608;50.894;5.296;2023-02-28T10:28:41;20.52;;;19.05;;
22881;SDS011;11608;50.894;5.296;2023-02-28T10:31:10;21.13;;;19.52;;
22881;SDS011;11608;50.894;5.296;2023-02-28T10:33:37;20.40;;;18.90;;
22881;SDS011;11608;50.894;5.296;2023-02-28T10:36:03;20.33;;;18.83;;
22881;SDS011;11608;50.894;5.296;2023-02-28T10:41:05;20.35;;;18.73;;
22881;SDS011;11608;50.894;5.296;2023-02-28T10:43:31;19.80;;;18.40;;
22881;SDS011;11608;50.894;5.296;2023-02-28T10:46:02;19.75;;;18.40;;
22881;SDS011;11608;50.894;5.296;2023-02-28T10:51:00;19.35;;;18.05;;
22881;SDS011;11608;50.894;5.296;2023-02-28T10:56:15;19.52;;;18.10;;
22881;SDS011;11608;50.894;5.296;2023-02-28T10:58:49;19.17;;;17.88;;
22881;SDS011;11608;50.894;5.296;2023-02-28T11:03:45;19.85;;;18.35;;
22881;SDS011;11608;50.894;5.296;2023-02-28T11:08:44;19.50;;;18.10;;
22881;SDS011;11608;50.894;5.296;2023-02-28T11:11:11;18.92;;;17.63;;
22881;SDS011;11608;50.894;5.296;2023-02-28T11:13:37;19.95;;;18.55;;
22881;SDS011;11608;50.894;5.296;2023-02-28T11:16:04;19.77;;;18.33;;
22881;SDS011;11608;50.894;5.296;2023-02-28T11:18:42;18.67;;;17.40;;
22881;SDS011;11608;50.894;5.296;2023-02-28T11:21:10;19.40;;;18.10;;
22881;SDS011;11608;50.894;5.296;2023-02-28T11:23:41;19.83;;;18.43;;
22881;SDS011;11608;50.894;5.296;2023-02-28T11:26:08;21.10;;;19.77;;
22881;SDS011;11608;50.894;5.296;2023-02-28T11:28:37;21.00;;;19.50;;
22881;SDS011;11608;50.894;5.296;2023-02-28T11:33:43;20.23;;;18.92;;
22881;SDS011;11608;50.894;5.296;2023-02-28T11:38:39;20.38;;;18.80;;
22881;SDS011;11608;50.894;5.296;2023-02-28T11:46:12;20.25;;;18.85;;
22881;SDS011;11608;50.894;5.296;2023-02-28T11:48:50;20.67;;;19.02;;
22881;SDS011;11608;50.894;5.296;2023-02-28T11:51:22;20.50;;;19.00;;
22881;SDS011;11608;50.894;5.296;2023-02-28T11:56:32;19.75;;;18.40;;
22881;SDS011;11608;50.894;5.296;2023-02-28T12:01:38;19.95;;;18.45;;
22881;SDS011;11608;50.894;5.296;2023-02-28T12:06:56;20.45;;;18.95;;
22881;SDS011;11608;50.894;5.296;2023-02-28T12:12:22;19.95;;;18.45;;
22881;SDS011;11608;50.894;5.296;2023-02-28T12:14:53;20.15;;;18.75;;
22881;SDS011;11608;50.894;5.296;2023-02-28T12:17:27;20.20;;;18.55;;
22881;SDS011;11608;50.894;5.296;2023-02-28T12:22:49;20.20;;;18.60;;
22881;SDS011;11608;50.894;5.296;2023-02-28T12:25:24;20.25;;;18.75;;
22881;SDS011;11608;50.894;5.296;2023-02-28T12:27:58;20.60;;;18.75;;
22881;SDS011;11608;50.894;5.296;2023-02-28T12:30:24;20.42;;;19.00;;
22881;SDS011;11608;50.894;5.296;2023-02-28T12:33:03;20.27;;;18.77;;
22881;SDS011;11608;50.894;5.296;2023-02-28T12:38:29;19.63;;;18.23;;
22881;SDS011;11608;50.894;5.296;2023-02-28T12:41:00;20.23;;;18.73;;
22881;SDS011;11608;50.894;5.296;2023-02-28T12:43:32;19.52;;;18.02;;
22881;SDS011;11608;50.894;5.296;2023-02-28T12:46:44;19.90;;;18.50;;
22881;SDS011;11608;50.894;5.296;2023-02-28T12:48:50;20.42;;;19.00;;
22881;SDS011;11608;50.894;5.296;2023-02-28T12:51:18;19.58;;;18.17;;
22881;SDS011;11608;50.894;5.296;2023-02-28T12:59:10;21.00;;;19.30;;
22881;SDS011;11608;50.894;5.296;2023-02-28T13:01:49;20.75;;;19.25;;
22881;SDS011;11608;50.894;5.296;2023-02-28T13:09:23;20.48;;;18.95;;
22881;SDS011;11608;50.894;5.296;2023-02-28T13:11:53;19.90;;;18.45;;
22881;SDS011;11608;50.894;5.296;2023-02-28T13:19:19;20.80;;;19.10;;
22881;SDS011;11608;50.894;5.296;2023-02-28T13:21:46;20.50;;;18.97;;
22881;SDS011;11608;50.894;5.296;2023-02-28T13:24:36;20.60;;;19.10;;
22881;SDS011;11608;50.894;5.296;2023-02-28T13:34:37;20.40;;;18.70;;
22881;SDS011;11608;50.894;5.296;2023-02-28T13:39:47;20.17;;;18.73;;
22881;SDS011;11608;50.894;5.296;2023-02-28T13:50:19;21.20;;;19.40;;
22881;SDS011;11608;50.894;5.296;2023-02-28T13:58:02;20.17;;;18.77;;
22881;SDS011;11608;50.894;5.296;2023-02-28T14:00:44;19.92;;;18.50;;
22881;SDS011;11608;50.894;5.296;2023-02-28T14:05:43;20.80;;;18.92;;
22881;SDS011;11608;50.894;5.296;2023-02-28T14:10:44;19.75;;;18.25;;
22881;SDS011;11608;50.894;5.296;2023-02-28T14:15:59;20.20;;;18.80;;
22881;SDS011;11608;50.894;5.296;2023-02-28T14:18:30;20.23;;;18.83;;
22881;SDS011;11608;50.894;5.296;2023-02-28T14:29:00;20.40;;;19.00;;
22881;SDS011;11608;50.894;5.296;2023-02-28T14:31:37;20.93;;;19.43;;
22881;SDS011;11608;50.894;5.296;2023-02-28T14:36:32;20.80;;;19.40;;
22881;SDS011;11608;50.894;5.296;2023-02-28T14:39:32;20.53;;;19.13;;
22881;SDS011;11608;50.894;5.296;2023-02-28T14:41:51;21.07;;;19.37;;
22881;SDS011;11608;50.894;5.296;2023-02-28T14:44:24;21.40;;;19.70;;
22881;SDS011;11608;50.894;5.296;2023-02-28T14:46:54;20.47;;;18.93;;
22881;SDS011;11608;50.894;5.296;2023-02-28T14:51:50;21.80;;;20.03;;
22881;SDS011;11608;50.894;5.296;2023-02-28T14:54:26;20.37;;;18.97;;
22881;SDS011;11608;50.894;5.296;2023-02-28T14:56:52;21.40;;;19.80;;
22881;SDS011;11608;50.894;5.296;2023-02-28T14:59:29;20.23;;;18.83;;
22881;SDS011;11608;50.894;5.296;2023-02-28T15:04:41;19.85;;;18.35;;
22881;SDS011;11608;50.894;5.296;2023-02-28T15:07:08;20.30;;;18.65;;
22881;SDS011;11608;50.894;5.296;2023-02-28T15:09:34;20.27;;;18.88;;
22881;SDS011;11608;50.894;5.296;2023-02-28T15:12:00;20.43;;;19.00;;
22881;SDS011;11608;50.894;5.296;2023-02-28T15:14:26;19.63;;;18.25;;
22881;SDS011;11608;50.894;5.296;2023-02-28T15:17:01;20.43;;;18.83;;
22881;SDS011;11608;50.894;5.296;2023-02-28T15:19:32;19.33;;;17.93;;
22881;SDS011;11608;50.894;5.296;2023-02-28T15:24:43;19.53;;;18.10;;
22881;SDS011;11608;50.894;5.296;2023-02-28T15:27:29;19.50;;;17.90;;
22881;SDS011;11608;50.894;5.296;2023-02-28T15:30:04;19.87;;;18.43;;
22881;SDS011;11608;50.894;5.296;2023-02-28T15:32:35;19.20;;;17.63;;
22881;SDS011;11608;50.894;5.296;2023-02-28T15:35:19;19.50;;;18.13;;
22881;SDS011;11608;50.894;5.296;2023-02-28T15:37:46;20.10;;;18.60;;
22881;SDS011;11608;50.894;5.296;2023-02-28T15:40:18;20.17;;;18.70;;
22881;SDS011;11608;50.894;5.296;2023-02-28T15:42:57;19.70;;;18.40;;
22881;SDS011;11608;50.894;5.296;2023-02-28T15:45:27;19.77;;;18.20;;
22881;SDS011;11608;50.894;5.296;2023-02-28T15:47:53;20.00;;;18.37;;
22881;SDS011;11608;50.894;5.296;2023-02-28T15:50:19;20.07;;;18.57;;
22881;SDS011;11608;50.894;5.296;2023-02-28T15:52:45;20.30;;;18.80;;
22881;SDS011;11608;50.894;5.296;2023-02-28T15:55:21;20.50;;;19.00;;
22881;SDS011;11608;50.894;5.296;2023-02-28T15:57:50;20.00;;;18.60;;
22881;SDS011;11608;50.894;5.296;2023-02-28T16:00:27;20.30;;;18.80;;
22881;SDS011;11608;50.894;5.296;2023-02-28T16:02:53;19.60;;;18.30;;
22881;SDS011;11608;50.894;5.296;2023-02-28T16:05:21;20.03;;;18.63;;
22881;SDS011;11608;50.894;5.296;2023-02-28T16:07:57;20.43;;;18.97;;
22881;SDS011;11608;50.894;5.296;2023-02-28T16:10:24;20.43;;;19.03;;
22881;SDS011;11608;50.894;5.296;2023-02-28T16:12:52;19.80;;;18.40;;
22881;SDS011;11608;50.894;5.296;2023-02-28T16:15:20;19.90;;;18.47;;
22881;SDS011;11608;50.894;5.296;2023-02-28T16:17:47;20.23;;;18.73;;
22881;SDS011;11608;50.894;5.296;2023-02-28T16:20:18;19.93;;;18.43;;
22881;SDS011;11608;50.894;5.296;2023-02-28T16:22:44;21.20;;;19.40;;
22881;SDS011;11608;50.894;5.296;2023-02-28T16:25:11;19.93;;;18.43;;
22881;SDS011;11608;50.894;5.296;2023-02-28T16:27:37;20.27;;;18.87;;
22881;SDS011;11608;50.894;5.296;2023-02-28T16:30:04;19.70;;;18.30;;
22881;SDS011;11608;50.894;5.296;2023-02-28T16:32:31;19.80;;;18.40;;
22881;SDS011;11608;50.894;5.296;2023-02-28T16:34:59;21.10;;;19.40;;
22881;SDS011;11608;50.894;5.296;2023-02-28T16:37:26;21.47;;;19.87;;
22881;SDS011;11608;50.894;5.296;2023-02-28T16:39:52;21.73;;;20.13;;
22881;SDS011;11608;50.894;5.296;2023-02-28T16:42:25;20.97;;;19.00;;
22881;SDS011;11608;50.894;5.296;2023-02-28T16:44:53;21.13;;;19.27;;
22881;SDS011;11608;50.894;5.296;2023-02-28T16:47:19;21.20;;;19.47;;
22881;SDS011;11608;50.894;5.296;2023-02-28T16:49:46;20.90;;;19.40;;
22881;SDS011;11608;50.894;5.296;2023-02-28T16:52:12;20.23;;;18.63;;
22881;SDS011;11608;50.894;5.296;2023-02-28T16:54:39;20.50;;;19.10;;
22881;SDS011;11608;50.894;5.296;2023-02-28T16:57:06;21.47;;;19.77;;